createdAt,value
2023-04-16T00:00:35.955Z,9.60
2023-04-16T00:01:35.138Z,9.50
2023-04-16T00:02:35.349Z,9.69
2023-04-16T00:03:35.464Z,9.52
2023-04-16T00:04:35.263Z,9.62
2023-04-16T00:05:35.257Z,9.70
2023-04-16T00:06:35.302Z,9.82
2023-04-16T00:07:35.305Z,9.73
2023-04-16T00:08:35.326Z,9.87
2023-04-16T00:09:35.336Z,10.04
2023-04-16T00:10:35.386Z,10.07
2023-04-16T00:11:35.450Z,10.23
2023-04-16T00:12:35.446Z,10.40
2023-04-16T00:13:35.530Z,10.35
2023-04-16T00:14:35.535Z,10.49
2023-04-16T00:15:35.515Z,10.72
2023-04-16T00:16:35.596Z,10.69
2023-04-16T00:17:35.651Z,10.66
2023-04-16T00:18:35.731Z,10.79
2023-04-16T00:19:35.796Z,10.93
2023-04-16T00:20:35.707Z,10.86
2023-04-16T00:21:35.725Z,10.51
2023-04-16T00:22:35.749Z,10.71
2023-04-16T00:23:35.824Z,10.83
2023-04-16T00:24:35.827Z,10.49
2023-04-16T00:25:35.835Z,10.47
2023-04-16T00:26:35.869Z,10.55
2023-04-16T00:27:35.940Z,10.51
2023-04-16T00:28:36.024Z,10.59
2023-04-16T00:29:35.979Z,10.72
2023-04-16T00:30:36.123Z,10.78
2023-04-16T00:31:36.422Z,10.79
2023-04-16T00:32:36.155Z,10.45
2023-04-16T00:33:36.198Z,10.68
2023-04-16T00:34:36.225Z,10.83
2023-04-16T00:35:36.255Z,11.00
2023-04-16T00:36:36.274Z,11.16
2023-04-16T00:37:36.327Z,11.05
2023-04-16T00:38:36.510Z,11.29
2023-04-16T00:39:36.365Z,11.37
2023-04-16T00:40:36.398Z,11.47
2023-04-16T00:41:36.406Z,11.36
2023-04-16T00:42:37.549Z,11.50
2023-04-16T00:43:36.475Z,11.13
2023-04-16T00:44:36.523Z,11.30
2023-04-16T00:45:36.540Z,11.46
2023-04-16T00:46:37.001Z,11.41
2023-04-16T00:47:36.597Z,11.23
2023-04-16T00:48:36.953Z,11.37
2023-04-16T00:49:36.597Z,11.40
2023-04-16T00:50:36.679Z,11.50
2023-04-16T00:51:36.739Z,11.29
2023-04-16T00:52:36.772Z,11.36
2023-04-16T00:53:36.848Z,11.34
2023-04-16T00:54:36.860Z,11.56
2023-04-16T00:55:36.886Z,11.66
2023-04-16T00:56:36.892Z,11.48
2023-04-16T00:57:36.927Z,11.64
2023-04-16T00:58:38.028Z,11.67
2023-04-16T00:59:36.946Z,11.64
2023-04-16T01:00:37.947Z,11.30
2023-04-16T01:01:37.063Z,11.47
2023-04-16T01:02:37.211Z,11.57
2023-04-16T01:03:37.274Z,11.61
2023-04-16T01:04:37.153Z,11.77
2023-04-16T01:05:37.167Z,11.80
2023-04-16T01:06:37.247Z,11.89
2023-04-16T01:07:37.223Z,11.91
2023-04-16T01:08:37.292Z,11.94
2023-04-16T01:09:37.292Z,11.92
2023-04-16T01:10:37.284Z,11.99
2023-04-16T01:11:37.394Z,12.01
2023-04-16T01:12:37.325Z,12.08
2023-04-16T01:13:37.373Z,12.15
2023-04-16T01:14:37.392Z,12.14
2023-04-16T01:15:37.472Z,12.19
2023-04-16T01:16:38.457Z,12.19
2023-04-16T01:17:37.643Z,12.25
2023-04-16T01:18:37.592Z,12.26
2023-04-16T01:19:37.584Z,12.26
2023-04-16T01:20:37.582Z,12.01
2023-04-16T01:21:37.632Z,12.08
2023-04-16T01:22:37.696Z,12.01
2023-04-16T01:23:37.771Z,12.11
2023-04-16T01:24:37.799Z,12.18
2023-04-16T01:25:37.850Z,12.17
2023-04-16T01:26:37.906Z,12.15
2023-04-16T01:27:37.989Z,12.19
2023-04-16T01:28:37.979Z,12.17
2023-04-16T01:29:38.027Z,12.15
2023-04-16T01:30:38.136Z,12.19
2023-04-16T01:31:38.176Z,12.25
2023-04-16T01:32:38.199Z,12.28
2023-04-16T01:33:38.173Z,12.26
2023-04-16T01:34:38.180Z,12.36
2023-04-16T01:35:38.241Z,12.31
2023-04-16T01:36:38.210Z,12.17
2023-04-16T01:37:38.492Z,12.14
2023-04-16T01:38:38.259Z,12.11
2023-04-16T01:39:38.319Z,12.18
2023-04-16T01:40:38.351Z,12.18
2023-04-16T01:41:38.377Z,12.21
2023-04-16T01:42:38.455Z,12.21
2023-04-16T01:43:40.208Z,12.18
2023-04-16T01:44:38.563Z,12.15
2023-04-16T01:45:38.651Z,12.17
2023-04-16T01:46:38.665Z,12.15
2023-04-16T01:47:38.729Z,12.18
2023-04-16T01:48:38.737Z,12.14
2023-04-16T01:49:38.727Z,12.12
2023-04-16T01:50:38.790Z,12.12
2023-04-16T01:51:38.859Z,12.08
2023-04-16T01:52:38.870Z,12.09
2023-04-16T01:53:38.934Z,12.12
2023-04-16T01:54:38.966Z,12.04
2023-04-16T01:55:38.994Z,12.08
2023-04-16T01:56:38.995Z,12.09
2023-04-16T01:57:39.059Z,12.19
2023-04-16T01:58:39.104Z,12.22
2023-04-16T01:59:39.055Z,12.24
2023-04-16T02:00:40.012Z,12.28
2023-04-16T02:01:39.145Z,12.26
2023-04-16T02:02:39.287Z,12.31
2023-04-16T02:03:39.266Z,12.26
2023-04-16T02:04:39.251Z,12.28
2023-04-16T02:05:39.289Z,12.32
2023-04-16T02:06:39.360Z,12.35
2023-04-16T02:07:39.373Z,12.38
2023-04-16T02:08:39.433Z,12.36
2023-04-16T02:09:39.489Z,12.39
2023-04-16T02:10:39.583Z,12.40
2023-04-16T02:11:39.538Z,12.42
2023-04-16T02:12:39.956Z,12.45
2023-04-16T02:13:39.567Z,12.46
2023-04-16T02:14:39.583Z,12.39
2023-04-16T02:15:39.604Z,12.33
2023-04-16T02:16:40.534Z,12.29
2023-04-16T02:17:40.017Z,12.26
2023-04-16T02:18:39.647Z,12.32
2023-04-16T02:19:39.652Z,12.32
2023-04-16T02:20:39.644Z,12.21
2023-04-16T02:21:39.681Z,12.28
2023-04-16T02:22:39.678Z,12.06
2023-04-16T02:23:39.693Z,12.08
2023-04-16T02:24:39.776Z,11.85
2023-04-16T02:25:40.495Z,11.89
2023-04-16T02:26:39.803Z,11.95
2023-04-16T02:27:39.838Z,11.95
2023-04-16T02:28:39.894Z,11.99
2023-04-16T02:29:39.904Z,11.99
2023-04-16T02:30:40.067Z,12.02
2023-04-16T02:31:40.056Z,11.95
2023-04-16T02:32:40.198Z,11.84
2023-04-16T02:33:40.146Z,11.98
2023-04-16T02:34:40.290Z,11.94
2023-04-16T02:35:40.230Z,11.92
2023-04-16T02:36:40.250Z,12.04
2023-04-16T02:37:40.512Z,12.01
2023-04-16T02:38:40.395Z,12.08
2023-04-16T02:39:40.399Z,12.09
2023-04-16T02:40:42.995Z,12.08
2023-04-16T02:41:40.740Z,11.95
2023-04-16T02:42:40.733Z,11.95
2023-04-16T02:43:40.754Z,12.08
2023-04-16T02:44:40.846Z,12.15
2023-04-16T02:45:40.900Z,12.04
2023-04-16T02:46:40.888Z,12.18
2023-04-16T02:47:40.955Z,12.14
2023-04-16T02:48:40.976Z,12.17
2023-04-16T02:49:40.975Z,12.04
2023-04-16T02:50:41.009Z,12.15
2023-04-16T02:51:41.033Z,12.11
2023-04-16T02:52:41.485Z,12.18
2023-04-16T02:53:41.058Z,12.17
2023-04-16T02:54:41.109Z,12.12
2023-04-16T02:55:41.166Z,12.15
2023-04-16T02:56:41.151Z,12.18
2023-04-16T02:57:41.185Z,12.19
2023-04-16T02:58:41.265Z,12.24
2023-04-16T02:59:41.220Z,12.18
2023-04-16T03:00:41.287Z,12.11
2023-04-16T03:01:41.368Z,12.18
2023-04-16T03:02:41.433Z,12.24
2023-04-16T03:03:41.363Z,12.25
2023-04-16T03:04:41.399Z,12.24
2023-04-16T03:05:41.368Z,12.24
2023-04-16T03:06:41.443Z,12.24
2023-04-16T03:07:41.430Z,12.06
2023-04-16T03:08:41.484Z,12.05
2023-04-16T03:09:41.513Z,11.89
2023-04-16T03:10:41.580Z,11.81
2023-04-16T03:11:41.548Z,11.74
2023-04-16T03:12:41.628Z,11.78
2023-04-16T03:13:41.620Z,11.66
2023-04-16T03:14:41.665Z,11.77
2023-04-16T03:15:41.751Z,11.70
2023-04-16T03:16:41.627Z,11.53
2023-04-16T03:17:41.679Z,11.58
2023-04-16T03:18:41.863Z,11.54
2023-04-16T03:19:41.901Z,11.43
2023-04-16T03:20:41.828Z,11.38
2023-04-16T03:21:41.898Z,11.31
2023-04-16T03:22:42.012Z,11.34
2023-04-16T03:23:41.980Z,11.16
2023-04-16T03:24:42.035Z,11.36
2023-04-16T03:25:42.007Z,11.29
2023-04-16T03:26:42.024Z,11.03
2023-04-16T03:27:42.054Z,11.13
2023-04-16T03:28:42.054Z,10.78
2023-04-16T03:29:42.079Z,10.91
2023-04-16T03:30:42.160Z,11.00
2023-04-16T03:31:42.145Z,11.17
2023-04-16T03:32:42.173Z,11.19
2023-04-16T03:33:42.507Z,11.23
2023-04-16T03:34:42.225Z,11.34
2023-04-16T03:35:42.251Z,11.38
2023-04-16T03:36:42.373Z,11.46
2023-04-16T03:37:42.374Z,11.54
2023-04-16T03:38:42.458Z,11.61
2023-04-16T03:39:42.523Z,11.67
2023-04-16T03:40:42.659Z,11.67
2023-04-16T03:41:42.674Z,11.77
2023-04-16T03:42:42.725Z,11.67
2023-04-16T03:43:42.753Z,11.78
2023-04-16T03:44:42.784Z,11.70
2023-04-16T03:45:42.855Z,11.57
2023-04-16T03:46:42.907Z,11.57
2023-04-16T03:47:42.957Z,11.66
2023-04-16T03:48:42.946Z,11.77
2023-04-16T03:49:42.992Z,11.82
2023-04-16T03:50:42.996Z,11.76
2023-04-16T03:51:43.109Z,11.78
2023-04-16T03:52:43.037Z,11.88
2023-04-16T03:53:43.089Z,11.94
2023-04-16T03:54:43.111Z,11.91
2023-04-16T03:55:43.143Z,11.92
2023-04-16T03:56:43.213Z,11.97
2023-04-16T03:57:43.253Z,11.98
2023-04-16T03:58:43.259Z,11.76
2023-04-16T03:59:43.259Z,11.78
2023-04-16T04:00:44.051Z,11.73
2023-04-16T04:01:43.259Z,11.56
2023-04-16T04:04:43.436Z,11.09
2023-04-16T04:05:43.330Z,11.05
2023-04-16T04:06:43.403Z,10.92
2023-04-16T04:07:43.364Z,11.09
2023-04-16T04:08:43.427Z,11.17
2023-04-16T04:09:43.553Z,11.16
2023-04-16T04:10:43.484Z,11.17
2023-04-16T04:11:43.505Z,11.09
2023-04-16T04:12:43.513Z,10.93
2023-04-16T04:13:43.588Z,11.03
2023-04-16T04:14:43.583Z,10.89
2023-04-16T04:15:43.619Z,10.92
2023-04-16T04:16:43.764Z,11.05
2023-04-16T04:17:43.740Z,10.93
2023-04-16T04:18:44.571Z,11.10
2023-04-16T04:19:54.316Z,11.12
2023-04-16T04:20:45.494Z,11.02
2023-04-16T04:21:43.692Z,10.80
2023-04-16T04:22:43.713Z,10.98
2023-04-16T04:23:43.768Z,10.93
2023-04-16T04:24:43.678Z,10.80
2023-04-16T04:25:43.751Z,10.80
2023-04-16T04:26:43.665Z,10.83
2023-04-16T04:27:43.686Z,10.85
2023-04-16T04:28:43.668Z,10.93
2023-04-16T04:29:43.704Z,10.93
2023-04-16T04:30:43.683Z,11.00
2023-04-16T04:31:43.691Z,10.83
2023-04-16T04:32:43.726Z,10.65
2023-04-16T04:33:43.636Z,10.64
2023-04-16T04:34:43.681Z,10.62
2023-04-16T04:35:43.731Z,10.37
2023-04-16T04:36:43.720Z,10.34
2023-04-16T04:37:43.768Z,10.40
2023-04-16T04:38:43.788Z,10.18
2023-04-16T04:39:43.801Z,10.28
2023-04-16T04:40:43.828Z,10.20
2023-04-16T04:41:43.829Z,10.07
2023-04-16T04:42:44.536Z,10.11
2023-04-16T04:43:43.873Z,10.20
2023-04-16T04:44:43.931Z,10.14
2023-04-16T04:45:43.982Z,10.23
2023-04-16T04:46:44.084Z,10.38
2023-04-16T04:47:44.128Z,10.43
2023-04-16T04:48:44.113Z,10.68
2023-04-16T04:49:44.098Z,10.78
2023-04-16T04:50:44.172Z,10.96
2023-04-16T04:51:44.232Z,11.05
2023-04-16T04:52:44.251Z,11.12
2023-04-16T04:53:44.300Z,11.15
2023-04-16T04:54:44.442Z,11.31
2023-04-16T04:55:44.405Z,11.20
2023-04-16T04:56:44.411Z,11.06
2023-04-16T04:57:44.458Z,11.12
2023-04-16T04:58:44.457Z,11.02
2023-04-16T04:59:44.467Z,11.02
2023-04-16T05:00:44.603Z,11.02
2023-04-16T05:01:44.552Z,11.10
2023-04-16T05:02:44.661Z,11.10
2023-04-16T05:03:44.730Z,10.72
2023-04-16T05:04:44.655Z,10.83
2023-04-16T05:05:45.511Z,11.07
2023-04-16T05:06:44.668Z,10.89
2023-04-16T05:07:44.739Z,10.75
2023-04-16T05:08:44.744Z,10.56
2023-04-16T05:09:44.758Z,10.85
2023-04-16T05:10:44.787Z,10.68
2023-04-16T05:11:44.889Z,10.78
2023-04-16T05:12:44.901Z,10.91
2023-04-16T05:13:44.916Z,10.96
2023-04-16T05:14:44.907Z,10.87
2023-04-16T05:15:44.931Z,10.62
2023-04-16T05:16:45.016Z,10.74
2023-04-16T05:17:45.075Z,10.74
2023-04-16T05:18:45.092Z,10.85
2023-04-16T05:19:45.067Z,10.78
2023-04-16T05:20:45.129Z,10.54
2023-04-16T05:21:45.145Z,10.78
2023-04-16T05:22:45.251Z,10.78
2023-04-16T05:23:45.283Z,10.85
2023-04-16T05:24:45.304Z,10.86
2023-04-16T05:25:45.302Z,11.03
2023-04-16T05:26:45.347Z,11.09
2023-04-16T05:27:45.322Z,10.96
2023-04-16T05:28:45.591Z,11.07
2023-04-16T05:29:45.368Z,10.98
2023-04-16T05:30:45.537Z,11.03
2023-04-16T05:31:45.434Z,10.89
2023-04-16T05:32:45.522Z,11.09
2023-04-16T05:33:45.482Z,10.80
2023-04-16T05:34:45.478Z,10.92
2023-04-16T05:35:45.552Z,10.69
2023-04-16T05:36:45.626Z,10.69
2023-04-16T05:37:45.639Z,10.49
2023-04-16T05:38:45.760Z,10.54
2023-04-16T05:39:45.740Z,10.37
2023-04-16T05:40:46.518Z,10.45
2023-04-16T05:41:45.781Z,10.38
2023-04-16T05:42:45.796Z,10.44
2023-04-16T05:43:45.814Z,10.69
2023-04-16T05:44:45.870Z,10.56
2023-04-16T05:45:45.875Z,10.55
2023-04-16T05:46:45.917Z,10.52
2023-04-16T05:47:46.051Z,10.66
2023-04-16T05:48:46.117Z,10.64
2023-04-16T05:49:46.538Z,10.71
2023-04-16T05:50:46.236Z,10.79
2023-04-16T05:51:46.206Z,10.93
2023-04-16T05:52:46.236Z,11.16
2023-04-16T05:53:46.301Z,11.27
2023-04-16T05:54:46.263Z,11.16
2023-04-16T05:55:46.356Z,11.34
2023-04-16T05:56:46.359Z,11.43
2023-04-16T05:57:46.397Z,11.38
2023-04-16T05:58:46.544Z,11.41
2023-04-16T05:59:46.458Z,11.07
2023-04-16T06:00:46.483Z,11.07
2023-04-16T06:01:46.548Z,11.10
2023-04-16T06:02:46.647Z,11.20
2023-04-16T06:03:46.572Z,11.26
2023-04-16T06:04:46.559Z,11.23
2023-04-16T06:05:46.686Z,11.25
2023-04-16T06:06:46.690Z,11.31
2023-04-16T06:07:46.666Z,11.36
2023-04-16T06:08:46.677Z,11.23
2023-04-16T06:09:46.761Z,11.37
2023-04-16T06:10:46.867Z,11.53
2023-04-16T06:11:46.835Z,11.26
2023-04-16T06:12:46.853Z,11.30
2023-04-16T06:13:46.888Z,11.19
2023-04-16T06:14:46.887Z,11.30
2023-04-16T06:15:46.953Z,11.53
2023-04-16T06:16:46.921Z,11.43
2023-04-16T06:17:46.987Z,11.61
2023-04-16T06:18:47.024Z,11.70
2023-04-16T06:19:46.991Z,11.63
2023-04-16T06:20:47.010Z,11.46
2023-04-16T06:21:47.028Z,11.50
2023-04-16T06:22:47.041Z,11.64
2023-04-16T06:23:47.060Z,11.61
2023-04-16T06:24:47.544Z,11.67
2023-04-16T06:25:47.127Z,11.71
2023-04-16T06:26:47.172Z,11.76
2023-04-16T06:27:47.191Z,11.89
2023-04-16T06:28:47.261Z,12.01
2023-04-16T06:29:47.261Z,11.85
2023-04-16T06:30:47.289Z,11.87
2023-04-16T06:31:47.310Z,12.02
2023-04-16T06:32:47.350Z,12.04
2023-04-16T06:33:47.393Z,12.08
2023-04-16T06:34:47.365Z,11.70
2023-04-16T06:35:47.336Z,11.80
2023-04-16T06:36:47.357Z,11.98
2023-04-16T06:37:47.372Z,11.84
2023-04-16T06:38:47.396Z,11.67
2023-04-16T06:39:47.393Z,11.88
2023-04-16T06:40:47.432Z,12.09
2023-04-16T06:41:47.441Z,11.89
2023-04-16T06:42:47.452Z,12.12
2023-04-16T06:43:47.462Z,12.11
2023-04-16T06:44:47.509Z,11.92
2023-04-16T06:45:47.577Z,12.09
2023-04-16T06:46:47.620Z,11.81
2023-04-16T06:47:47.615Z,11.85
2023-04-16T06:48:47.629Z,11.91
2023-04-16T06:49:47.658Z,12.01
2023-04-16T06:50:47.642Z,12.21
2023-04-16T06:51:47.739Z,12.21
2023-04-16T06:52:47.740Z,11.81
2023-04-16T06:53:47.775Z,11.87
2023-04-16T06:54:47.791Z,11.91
2023-04-16T06:55:47.804Z,11.57
2023-04-16T06:56:47.832Z,11.50
2023-04-16T06:57:47.846Z,11.64
2023-04-16T06:58:47.895Z,11.70
2023-04-16T06:59:47.941Z,11.43
2023-04-16T07:00:48.066Z,11.58
2023-04-16T07:01:48.175Z,11.61
2023-04-16T07:02:48.169Z,11.73
2023-04-16T07:03:48.445Z,11.58
2023-04-16T07:04:48.116Z,11.89
2023-04-16T07:05:48.141Z,11.50
2023-04-16T07:06:48.149Z,11.43
2023-04-16T07:07:48.112Z,11.78
2023-04-16T07:08:48.248Z,11.44
2023-04-16T07:09:48.152Z,11.84
2023-04-16T07:10:48.199Z,11.70
2023-04-16T07:11:48.192Z,12.06
2023-04-16T07:12:48.223Z,11.60
2023-04-16T07:13:48.229Z,11.88
2023-04-16T07:14:48.273Z,11.58
2023-04-16T07:15:48.265Z,11.46
2023-04-16T07:16:48.360Z,11.50
2023-04-16T07:17:48.338Z,11.43
2023-04-16T07:18:48.358Z,11.84
2023-04-16T07:19:48.360Z,11.92
2023-04-16T07:20:48.369Z,11.91
2023-04-16T07:21:48.453Z,12.11
2023-04-16T07:22:48.531Z,12.32
2023-04-16T07:23:48.580Z,12.01
2023-04-16T07:24:48.485Z,12.25
2023-04-16T07:25:48.535Z,12.22
2023-04-16T07:26:48.521Z,12.45
2023-04-16T07:27:48.548Z,12.32
2023-04-16T07:28:48.564Z,12.26
2023-04-16T07:29:48.683Z,12.29
2023-04-16T07:30:48.652Z,12.49
2023-04-16T07:31:48.752Z,12.36
2023-04-16T07:32:48.792Z,12.22
2023-04-16T07:33:48.762Z,12.62
2023-04-16T07:34:48.774Z,12.46
2023-04-16T07:35:49.112Z,12.40
2023-04-16T07:36:48.786Z,12.02
2023-04-16T07:37:48.903Z,12.12
2023-04-16T07:38:48.802Z,12.17
2023-04-16T07:39:48.872Z,12.39
2023-04-16T07:40:48.887Z,12.06
2023-04-16T07:41:48.917Z,12.19
2023-04-16T07:42:48.986Z,12.29
2023-04-16T07:43:49.005Z,12.52
2023-04-16T07:44:49.568Z,12.35
2023-04-16T07:45:49.001Z,12.24
2023-04-16T07:46:49.049Z,12.09
2023-04-16T07:47:49.097Z,12.12
2023-04-16T07:48:49.064Z,12.14
2023-04-16T07:49:49.084Z,11.91
2023-04-16T07:50:49.073Z,12.08
2023-04-16T07:51:49.130Z,12.49
2023-04-16T07:52:49.164Z,12.42
2023-04-16T07:53:49.237Z,12.62
2023-04-16T07:54:49.245Z,12.73
2023-04-16T07:55:49.268Z,12.73
2023-04-16T07:56:49.281Z,13.03
2023-04-16T07:57:49.307Z,13.10
2023-04-16T07:58:49.322Z,12.84
2023-04-16T07:59:49.349Z,12.86
2023-04-16T08:00:50.997Z,12.97
2023-04-16T08:01:49.439Z,13.06
2023-04-16T08:02:49.598Z,12.89
2023-04-16T08:03:49.646Z,12.97
2023-04-16T08:04:49.573Z,12.87
2023-04-16T08:05:49.588Z,13.07
2023-04-16T08:06:49.577Z,13.28
2023-04-16T08:07:49.642Z,13.28
2023-04-16T08:08:49.672Z,13.14
2023-04-16T08:09:49.678Z,13.22
2023-04-16T08:10:50.164Z,12.96
2023-04-16T08:11:49.745Z,12.97
2023-04-16T08:12:49.746Z,13.33
2023-04-16T08:13:49.846Z,13.30
2023-04-16T08:14:49.824Z,13.13
2023-04-16T08:15:50.065Z,13.08
2023-04-16T08:16:49.949Z,12.80
2023-04-16T08:17:50.087Z,13.22
2023-04-16T08:18:50.064Z,13.15
2023-04-16T08:19:50.046Z,12.80
2023-04-16T08:20:50.154Z,13.08
2023-04-16T08:21:50.122Z,13.17
2023-04-16T08:22:50.169Z,13.38
2023-04-16T08:23:50.215Z,13.38
2023-04-16T08:24:50.201Z,13.21
2023-04-16T08:25:51.762Z,13.47
2023-04-16T08:26:50.232Z,13.64
2023-04-16T08:27:50.281Z,13.44
2023-04-16T08:28:50.552Z,13.61
2023-04-16T08:29:50.383Z,13.34
2023-04-16T08:30:50.435Z,13.42
2023-04-16T08:31:50.521Z,13.50
2023-04-16T08:32:50.660Z,13.68
2023-04-16T08:33:50.655Z,13.51
2023-04-16T08:34:50.592Z,13.69
2023-04-16T08:35:51.558Z,13.88
2023-04-16T08:36:50.649Z,13.83
2023-04-16T08:37:50.669Z,13.64
2023-04-16T08:38:50.750Z,13.98
2023-04-16T08:39:50.754Z,13.68
2023-04-16T08:40:51.594Z,14.09
2023-04-16T08:41:50.885Z,14.10
2023-04-16T08:42:50.920Z,14.19
2023-04-16T08:43:50.931Z,14.15
2023-04-16T08:44:50.988Z,14.41
2023-04-16T08:45:50.969Z,14.47
2023-04-16T08:46:51.001Z,14.30
2023-04-16T08:47:51.166Z,14.20
2023-04-16T08:48:51.079Z,14.37
2023-04-16T08:49:51.099Z,14.50
2023-04-16T08:50:52.235Z,14.68
2023-04-16T08:51:51.182Z,14.95
2023-04-16T08:52:51.241Z,15.01
2023-04-16T08:53:51.273Z,15.06
2023-04-16T08:54:56.512Z,15.21
2023-04-16T08:55:52.351Z,15.35
2023-04-16T08:56:51.308Z,15.28
2023-04-16T08:57:51.282Z,15.09
2023-04-16T08:58:51.281Z,15.26
2023-04-16T08:59:51.285Z,15.11
2023-04-16T09:00:51.256Z,15.18
2023-04-16T09:01:51.354Z,15.26
2023-04-16T09:02:51.298Z,15.32
2023-04-16T09:04:54.663Z,15.24
2023-04-16T09:05:54.665Z,15.12
2023-04-16T09:06:54.684Z,15.29
2023-04-16T09:07:54.695Z,15.32
2023-04-16T09:08:54.713Z,15.45
2023-04-16T09:09:54.647Z,15.47
2023-04-16T09:10:54.622Z,15.38
2023-04-16T09:11:54.625Z,15.33
2023-04-16T09:12:54.624Z,15.46
2023-04-16T09:13:54.610Z,15.35
2023-04-16T09:14:54.632Z,15.38
2023-04-16T09:15:54.630Z,15.38
2023-04-16T09:16:54.644Z,15.06
2023-04-16T09:17:54.636Z,15.25
2023-04-16T09:18:54.577Z,15.32
2023-04-16T09:19:54.570Z,15.31
2023-04-16T09:20:54.703Z,15.41
2023-04-16T09:21:54.617Z,15.45
2023-04-16T09:22:54.576Z,15.45
2023-04-16T09:23:54.598Z,15.46
2023-04-16T09:24:54.570Z,15.42
2023-04-16T09:25:54.560Z,15.46
2023-04-16T09:26:54.573Z,15.46
2023-04-16T09:27:54.571Z,15.59
2023-04-16T09:28:54.562Z,15.49
2023-04-16T09:29:54.565Z,15.56
2023-04-16T09:30:54.510Z,14.68
2023-04-16T09:31:54.555Z,14.87
2023-04-16T09:32:54.544Z,14.99
2023-04-16T09:33:54.535Z,15.02
2023-04-16T09:34:54.495Z,15.06
2023-04-16T09:35:54.489Z,15.12
2023-04-16T09:36:54.513Z,15.18
2023-04-16T09:37:54.477Z,15.01
2023-04-16T09:38:56.890Z,15.32
2023-04-16T09:39:54.505Z,15.29
2023-04-16T09:40:54.453Z,15.42
2023-04-16T09:41:54.463Z,15.45
2023-04-16T09:42:54.421Z,15.59
2023-04-16T09:43:54.453Z,15.14
2023-04-16T09:44:54.426Z,14.73
2023-04-16T09:45:54.467Z,14.75
2023-04-16T09:46:54.404Z,15.11
2023-04-16T09:47:54.457Z,15.05
2023-04-16T09:48:54.400Z,15.06
2023-04-16T09:49:54.394Z,15.19
2023-04-16T09:50:54.406Z,15.24
2023-04-16T09:51:54.393Z,15.22
2023-04-16T09:52:54.401Z,15.17
2023-04-16T09:53:54.391Z,15.35
2023-04-16T09:54:54.350Z,15.22
2023-04-16T09:55:54.374Z,15.35
2023-04-16T09:56:54.373Z,15.09
2023-04-16T09:57:54.437Z,15.18
2023-04-16T09:58:54.355Z,15.22
2023-04-16T09:59:54.327Z,15.25
2023-04-16T10:00:54.330Z,14.90
2023-04-16T10:02:14.354Z,14.98
2023-04-16T10:02:55.362Z,15.01
2023-04-16T10:03:54.471Z,14.96
2023-04-16T10:04:54.305Z,14.94
2023-04-16T10:05:54.285Z,14.67
2023-04-16T10:06:54.295Z,14.48
2023-04-16T10:07:54.237Z,14.59
2023-04-16T10:08:54.338Z,14.47
2023-04-16T10:09:54.234Z,14.19
2023-04-16T10:10:54.252Z,14.26
2023-04-16T10:11:54.262Z,13.83
2023-04-16T10:12:54.278Z,13.89
2023-04-16T10:13:54.229Z,13.64
2023-04-16T10:14:54.268Z,13.27
2023-04-16T10:15:54.305Z,13.15
2023-04-16T10:16:54.344Z,13.85
2023-04-16T10:17:54.398Z,13.78
2023-04-16T10:18:54.342Z,13.57
2023-04-16T10:19:54.363Z,13.93
2023-04-16T10:20:54.384Z,13.59
2023-04-16T10:21:54.400Z,13.21
2023-04-16T10:22:54.437Z,13.52
2023-04-16T10:23:54.528Z,13.81
2023-04-16T10:24:54.501Z,13.51
2023-04-16T10:25:56.402Z,13.11
2023-04-16T10:26:54.572Z,13.11
2023-04-16T10:27:55.507Z,13.52
2023-04-16T10:28:54.601Z,13.47
2023-04-16T10:29:54.524Z,13.20
2023-04-16T10:30:54.650Z,13.30
2023-04-16T10:31:54.514Z,13.37
2023-04-16T10:32:54.555Z,14.05
2023-04-16T10:33:54.513Z,14.30
2023-04-16T10:34:54.566Z,14.19
2023-04-16T10:36:06.794Z,14.17
2023-04-16T10:36:55.519Z,14.20
2023-04-16T10:37:54.467Z,14.33
2023-04-16T10:38:54.484Z,14.32
2023-04-16T10:39:54.482Z,14.20
2023-04-16T10:40:54.456Z,14.53
2023-04-16T10:41:54.451Z,14.13
2023-04-16T10:42:54.460Z,14.05
2023-04-16T10:43:54.431Z,14.01
2023-04-16T10:44:54.499Z,13.95
2023-04-16T10:45:54.435Z,14.13
2023-04-16T10:46:54.461Z,14.13
2023-04-16T10:47:54.451Z,13.92
2023-04-16T10:48:54.436Z,14.06
2023-04-16T10:49:54.403Z,14.06
2023-04-16T10:50:54.401Z,14.23
2023-04-16T10:51:54.367Z,13.95
2023-04-16T10:52:54.400Z,14.08
2023-04-16T10:53:54.407Z,14.19
2023-04-16T10:54:54.465Z,14.08
2023-04-16T10:55:54.487Z,14.41
2023-04-16T10:56:54.484Z,14.48
2023-04-16T10:57:54.537Z,14.29
2023-04-16T10:58:54.612Z,14.08
2023-04-16T10:59:54.644Z,14.29
2023-04-16T11:00:54.620Z,14.03
2023-04-16T11:01:54.858Z,14.51
2023-04-16T11:02:54.869Z,14.66
2023-04-16T11:03:54.904Z,15.25
2023-04-16T11:04:54.819Z,14.99
2023-04-16T11:05:54.888Z,14.99
2023-04-16T11:06:54.823Z,14.27
2023-04-16T11:07:54.884Z,14.36
2023-04-16T11:08:55.404Z,14.87
2023-04-16T11:09:54.969Z,14.63
2023-04-16T11:10:55.001Z,14.43
2023-04-16T11:11:55.056Z,14.39
2023-04-16T11:12:55.069Z,14.48
2023-04-16T11:13:55.079Z,14.17
2023-04-16T11:14:55.100Z,14.24
2023-04-16T11:15:55.150Z,14.10
2023-04-16T11:16:55.143Z,14.27
2023-04-16T11:17:55.249Z,14.39
2023-04-16T11:18:56.816Z,14.68
2023-04-16T11:19:55.260Z,14.12
2023-04-16T11:20:55.259Z,13.66
2023-04-16T11:21:55.298Z,13.66
2023-04-16T11:22:55.318Z,14.01
2023-04-16T11:23:58.561Z,13.75
2023-04-16T11:24:55.332Z,13.98
2023-04-16T11:25:55.345Z,14.30
2023-04-16T11:26:55.307Z,14.13
2023-04-16T11:27:55.335Z,13.99
2023-04-16T11:28:55.300Z,13.86
2023-04-16T11:29:55.329Z,13.79
2023-04-16T11:30:55.283Z,13.73
2023-04-16T11:31:55.380Z,13.72
2023-04-16T11:32:55.355Z,13.81
2023-04-16T11:33:55.315Z,14.24
2023-04-16T11:34:55.292Z,14.24
2023-04-16T11:35:55.282Z,14.09
2023-04-16T11:36:55.246Z,13.88
2023-04-16T11:37:55.275Z,14.13
2023-04-16T11:38:55.262Z,14.01
2023-04-16T11:39:55.261Z,13.96
2023-04-16T11:40:55.228Z,14.23
2023-04-16T11:41:55.233Z,14.29
2023-04-16T11:42:55.255Z,14.23
2023-04-16T11:43:55.235Z,14.36
2023-04-16T11:44:55.214Z,14.13
2023-04-16T11:45:55.213Z,14.23
2023-04-16T11:46:55.249Z,13.92
2023-04-16T11:47:55.356Z,14.16
2023-04-16T11:48:55.175Z,14.22
2023-04-16T11:49:55.193Z,14.53
2023-04-16T11:50:55.156Z,14.30
2023-04-16T11:51:55.179Z,14.41
2023-04-16T11:52:55.177Z,14.20
2023-04-16T11:53:55.181Z,13.79
2023-04-16T11:54:55.133Z,14.22
2023-04-16T11:55:55.142Z,14.30
2023-04-16T11:56:55.154Z,14.56
2023-04-16T11:57:55.129Z,14.39
2023-04-16T11:58:55.188Z,14.16
2023-04-16T12:00:01.361Z,14.67
2023-04-16T12:00:56.116Z,14.73
2023-04-16T12:01:55.223Z,14.56
2023-04-16T12:02:55.486Z,14.53
2023-04-16T12:03:55.404Z,14.70
2023-04-16T12:04:55.187Z,14.87
2023-04-16T12:05:55.066Z,14.39
2023-04-16T12:06:55.099Z,14.15
2023-04-16T12:07:55.104Z,14.26
2023-04-16T12:08:55.069Z,14.48
2023-04-16T12:09:55.057Z,14.29
2023-04-16T12:10:55.072Z,14.44
2023-04-16T12:11:55.042Z,14.40
2023-04-16T12:12:55.149Z,14.26
2023-04-16T12:13:55.028Z,14.39
2023-04-16T12:14:55.040Z,14.13
2023-04-16T12:15:55.008Z,14.20
2023-04-16T12:16:55.062Z,14.15
2023-04-16T12:17:55.048Z,14.32
2023-04-16T12:18:55.016Z,14.20
2023-04-16T12:19:55.016Z,14.44
2023-04-16T12:20:55.121Z,14.19
2023-04-16T12:21:55.124Z,14.33
2023-04-16T12:22:55.184Z,14.23
2023-04-16T12:23:55.207Z,14.22
2023-04-16T12:24:55.243Z,14.41
2023-04-16T12:25:55.299Z,14.08
2023-04-16T12:26:55.361Z,14.19
2023-04-16T12:27:55.400Z,14.23
2023-04-16T12:28:55.437Z,14.06
2023-04-16T12:29:55.493Z,14.13
2023-04-16T12:30:55.605Z,14.15
2023-04-16T12:31:55.549Z,13.98
2023-04-16T12:32:56.637Z,14.27
2023-04-16T12:33:55.765Z,14.29
2023-04-16T12:34:55.520Z,14.41
2023-04-16T12:35:55.526Z,14.53
2023-04-16T12:36:55.549Z,14.39
2023-04-16T12:37:55.519Z,14.59
2023-04-16T12:38:55.545Z,14.34
2023-04-16T12:39:55.502Z,14.09
2023-04-16T12:40:55.530Z,14.32
2023-04-16T12:41:55.493Z,14.34
2023-04-16T12:42:55.501Z,13.95
2023-04-16T12:43:55.487Z,13.90
2023-04-16T12:44:55.452Z,13.89
2023-04-16T12:45:55.501Z,14.05
2023-04-16T12:46:55.433Z,13.72
2023-04-16T12:47:55.479Z,13.71
2023-04-16T12:48:55.461Z,13.59
2023-04-16T12:49:55.452Z,13.76
2023-04-16T12:50:55.443Z,13.51
2023-04-16T12:51:55.415Z,13.50
2023-04-16T12:52:55.401Z,13.62
2023-04-16T12:53:55.407Z,13.75
2023-04-16T12:54:55.416Z,13.61
2023-04-16T12:55:55.486Z,13.93